< < Back
Terminal Aerodrome Forecast


Current Version              Previous Versions:   1  2  3  4  5  6  7  8  9  

Terminal Aerodrome Forecast

886
FTUS42 KTAE 281050 AAB
TAFVLD
TAF AMD
KVLD 281050Z 2811/2906 00000KT 2SM BR FEW003
      TEMPO 2811/2812 BKN002
     FM281300 VRB04KT P6SM SCT040
     FM290000 00000KT P6SM SCT250=

Latest METAR

370
SAUS70 KWBC 290200 RRA
MTRVLD
METAR KVLD 290153Z 00000KT 10SM CLR 28/25 A2995 RMK AO2 SLP149
T02780250


USA.gov is the U.S. government's official web portal to all federal, state and local government web resources and services.